createdAt,value
2022-10-24T00:02:21.499Z,3.47
2022-10-24T00:04:48.155Z,2.53
2022-10-24T00:07:14.774Z,2.53
2022-10-24T00:09:41.203Z,4.18
2022-10-24T00:12:08.048Z,2.80
2022-10-24T00:14:35.508Z,3.30
2022-10-24T00:17:02.304Z,2.72
2022-10-24T00:19:28.683Z,4.43
2022-10-24T00:21:55.035Z,2.78
2022-10-24T00:24:21.903Z,2.78
2022-10-24T00:26:48.264Z,2.92
2022-10-24T00:29:14.644Z,3.47
2022-10-24T00:31:41.985Z,3.40
2022-10-24T00:34:08.458Z,3.10
2022-10-24T00:36:34.898Z,3.03
2022-10-24T00:39:01.795Z,2.58
2022-10-24T00:41:34.908Z,3.13
2022-10-24T00:44:27.565Z,2.45
2022-10-24T00:47:01.170Z,3.20
2022-10-24T00:49:31.960Z,2.50
2022-10-24T00:52:05.226Z,3.38
2022-10-24T00:54:31.703Z,2.83
2022-10-24T00:57:10.350Z,3.78
2022-10-24T00:59:38.580Z,3.05
2022-10-24T01:02:05.152Z,3.00
2022-10-24T01:04:31.624Z,2.78
2022-10-24T01:07:27.532Z,3.92
2022-10-24T01:10:07.290Z,2.72
2022-10-24T01:12:45.408Z,4.60
2022-10-24T01:15:20.519Z,3.30
2022-10-24T01:18:11.585Z,3.95
2022-10-24T01:21:00.415Z,3.30
2022-10-24T01:23:45.532Z,2.83
2022-10-24T01:26:36.244Z,3.70
2022-10-24T01:29:16.760Z,3.00
2022-10-24T01:31:51.428Z,3.20
2022-10-24T01:34:26.829Z,3.50
2022-10-24T01:37:04.685Z,3.55
2022-10-24T01:39:36.920Z,2.90
2022-10-24T01:44:37.354Z,2.40
2022-10-24T01:47:08.974Z,2.90
2022-10-24T01:49:37.094Z,2.30
2022-10-24T01:52:06.800Z,2.58
2022-10-24T01:54:33.966Z,3.08
2022-10-24T01:57:00.397Z,2.83
2022-10-24T01:59:28.244Z,2.53
2022-10-24T02:02:36.106Z,2.30
2022-10-24T02:05:14.606Z,4.38
2022-10-24T02:07:43.057Z,2.80
2022-10-24T02:10:17.525Z,2.45
2022-10-24T02:12:48.108Z,2.55
2022-10-24T02:15:36.846Z,3.58
2022-10-24T02:18:03.499Z,2.75
2022-10-24T02:20:39.714Z,2.40
2022-10-24T02:23:21.636Z,2.95
2022-10-24T02:25:51.131Z,2.40
2022-10-24T02:28:21.561Z,2.45
2022-10-24T02:30:54.310Z,2.90
2022-10-24T02:33:20.935Z,3.00
2022-10-24T02:35:48.352Z,2.47
2022-10-24T02:38:20.650Z,2.28
2022-10-24T02:40:48.124Z,2.53
2022-10-24T02:43:14.639Z,2.72
2022-10-24T02:45:41.065Z,3.00
2022-10-24T02:48:10.694Z,2.50
2022-10-24T02:50:39.600Z,2.25
2022-10-24T02:53:06.049Z,2.25
2022-10-24T02:55:32.492Z,2.25
2022-10-24T02:57:58.918Z,2.65
2022-10-24T03:00:25.464Z,2.63
2022-10-24T03:02:51.884Z,2.03
2022-10-24T03:05:18.308Z,2.60
2022-10-24T03:07:44.676Z,2.80
2022-10-24T03:10:11.087Z,1.90
2022-10-24T03:12:37.553Z,3.53
2022-10-24T03:15:04.975Z,2.90
2022-10-24T03:17:31.334Z,2.72
2022-10-24T03:19:57.817Z,2.10
2022-10-24T03:22:28.640Z,2.50
2022-10-24T03:24:57.321Z,1.90
2022-10-24T03:27:23.776Z,2.65
2022-10-24T03:29:50.181Z,2.40
2022-10-24T03:32:16.719Z,2.20
2022-10-24T03:34:43.195Z,2.15
2022-10-24T03:37:09.624Z,1.77
2022-10-24T03:39:36.027Z,2.80
2022-10-24T03:42:02.449Z,2.20
2022-10-24T03:44:28.897Z,2.33
2022-10-24T03:46:55.276Z,2.38
2022-10-24T03:49:21.663Z,2.13
2022-10-24T03:51:48.036Z,1.90
2022-10-24T03:54:15.286Z,2.17
2022-10-24T03:56:47.861Z,2.10
2022-10-24T03:59:14.257Z,2.42
2022-10-24T04:01:40.846Z,2.15
2022-10-24T04:04:07.338Z,2.25
2022-10-24T04:06:36.396Z,2.53
2022-10-24T04:09:03.704Z,1.90
2022-10-24T04:11:30.097Z,2.33
2022-10-24T04:13:56.756Z,2.15
2022-10-24T04:16:24.064Z,2.63
2022-10-24T04:18:51.235Z,1.90
2022-10-24T04:21:21.810Z,2.03
2022-10-24T04:23:48.823Z,1.60
2022-10-24T04:26:17.890Z,2.72
2022-10-24T04:28:46.723Z,1.80
2022-10-24T04:31:15.092Z,1.83
2022-10-24T04:33:43.439Z,2.28
2022-10-24T04:36:09.816Z,1.98
2022-10-24T04:38:36.262Z,3.80
2022-10-24T04:41:02.658Z,2.03
2022-10-24T04:43:29.138Z,1.88
2022-10-24T04:45:55.525Z,2.15
2022-10-24T04:48:21.890Z,1.88
2022-10-24T04:50:48.695Z,2.15
2022-10-24T04:53:15.376Z,2.72
2022-10-24T04:55:41.757Z,2.17
2022-10-24T04:58:08.137Z,2.28
2022-10-24T05:00:34.616Z,2.92
2022-10-24T05:03:01.017Z,2.08
2022-10-24T05:05:27.479Z,2.35
2022-10-24T05:07:53.903Z,1.90
2022-10-24T05:10:20.437Z,2.40
2022-10-24T05:12:47.083Z,2.17
2022-10-24T05:15:14.941Z,3.13
2022-10-24T05:17:41.301Z,2.30
2022-10-24T05:20:08.281Z,1.70
2022-10-24T05:22:34.808Z,2.25
2022-10-24T05:25:01.193Z,2.15
2022-10-24T05:27:27.581Z,1.73
2022-10-24T05:29:54.540Z,2.17
2022-10-24T05:32:22.783Z,2.00
2022-10-24T05:34:50.050Z,2.22
2022-10-24T05:37:16.891Z,2.35
2022-10-24T05:39:43.305Z,2.10
2022-10-24T05:42:11.058Z,2.30
2022-10-24T05:44:37.945Z,2.13
2022-10-24T05:47:04.786Z,2.80
2022-10-24T05:49:31.264Z,2.20
2022-10-24T05:51:57.650Z,2.00
2022-10-24T05:54:24.018Z,2.50
2022-10-24T05:56:50.430Z,2.05
2022-10-24T05:59:16.830Z,1.80
2022-10-24T06:01:43.305Z,3.53
2022-10-24T06:04:12.878Z,1.83
2022-10-24T06:06:42.215Z,2.10
2022-10-24T06:09:09.241Z,1.70
2022-10-24T06:11:35.706Z,2.17
2022-10-24T06:14:02.107Z,1.60
2022-10-24T06:16:30.188Z,2.95
2022-10-24T06:18:57.294Z,1.80
2022-10-24T06:21:24.856Z,1.65
2022-10-24T06:23:51.561Z,2.00
2022-10-24T06:26:20.408Z,2.08
2022-10-24T06:28:49.660Z,1.48
2022-10-24T06:31:16.049Z,1.88
2022-10-24T06:33:42.409Z,1.90
2022-10-24T06:36:09.433Z,1.38
2022-10-24T06:38:36.807Z,1.80
2022-10-24T06:41:08.089Z,1.63
2022-10-24T06:43:34.460Z,1.60
2022-10-24T06:46:05.349Z,2.22
2022-10-24T06:48:31.729Z,1.45
2022-10-24T06:50:58.134Z,2.85
2022-10-24T06:53:24.489Z,1.38
2022-10-24T06:55:50.885Z,1.83
2022-10-24T06:58:17.255Z,1.33
2022-10-24T07:00:43.801Z,1.63
2022-10-24T07:03:15.422Z,1.40
2022-10-24T07:05:41.809Z,2.20
2022-10-24T07:08:08.181Z,1.58
2022-10-24T07:10:34.578Z,1.70
2022-10-24T07:13:00.939Z,1.35
2022-10-24T07:15:27.329Z,1.20
2022-10-24T07:17:53.692Z,1.58
2022-10-24T07:20:20.091Z,1.65
2022-10-24T07:22:46.768Z,1.52
2022-10-24T07:25:13.520Z,1.60
2022-10-24T07:27:40.362Z,1.50
2022-10-24T07:30:07.858Z,1.40
2022-10-24T07:32:34.720Z,1.20
2022-10-24T07:35:01.093Z,1.88
2022-10-24T07:37:27.518Z,1.38
2022-10-24T07:39:53.927Z,1.70
2022-10-24T07:42:20.356Z,2.20
2022-10-24T07:44:46.733Z,1.58
2022-10-24T07:47:13.137Z,1.35
2022-10-24T07:49:39.686Z,1.10
2022-10-24T07:52:06.168Z,1.92
2022-10-24T07:54:36.190Z,1.60
2022-10-24T07:57:04.203Z,1.90
2022-10-24T07:59:41.702Z,1.92
2022-10-24T08:02:11.043Z,1.85
2022-10-24T08:04:37.418Z,2.17
2022-10-24T08:07:03.802Z,1.88
2022-10-24T08:09:30.233Z,1.25
2022-10-24T08:11:56.638Z,1.23
2022-10-24T08:14:23.035Z,2.05
2022-10-24T08:16:49.413Z,1.55
2022-10-24T08:19:15.853Z,1.40
2022-10-24T08:21:42.299Z,1.40
2022-10-24T08:24:08.788Z,1.35
2022-10-24T08:26:35.208Z,1.40
2022-10-24T08:29:01.823Z,1.58
2022-10-24T08:31:28.193Z,1.25
2022-10-24T08:33:55.830Z,1.45
2022-10-24T08:36:28.095Z,1.40
2022-10-24T08:38:54.677Z,1.38
2022-10-24T08:41:38.080Z,2.38
2022-10-24T08:44:11.333Z,1.20
2022-10-24T08:46:50.308Z,1.50
2022-10-24T08:49:38.827Z,1.55
2022-10-24T08:52:18.947Z,1.50
2022-10-24T08:54:46.119Z,1.20
2022-10-24T08:57:25.141Z,1.73
2022-10-24T08:59:54.999Z,1.70
2022-10-24T09:02:25.072Z,1.80
2022-10-24T09:04:57.457Z,1.40
2022-10-24T09:09:55.251Z,1.63
2022-10-24T09:12:21.702Z,2.92
2022-10-24T09:14:56.658Z,2.38
2022-10-24T09:17:32.291Z,1.75
2022-10-24T09:20:00.469Z,1.27
2022-10-24T09:22:32.951Z,1.33
2022-10-24T09:25:04.508Z,1.70
2022-10-24T09:27:34.294Z,1.65
2022-10-24T09:30:01.013Z,1.55
2022-10-24T09:32:32.551Z,1.83
2022-10-24T09:35:06.812Z,1.38
2022-10-24T09:37:47.454Z,1.38
2022-10-24T09:40:20.205Z,1.95
2022-10-24T09:42:57.104Z,1.27
2022-10-24T09:45:39.589Z,2.70
2022-10-24T09:48:41.924Z,1.40
2022-10-24T09:51:08.688Z,1.88
2022-10-24T09:53:37.573Z,1.73
2022-10-24T09:56:14.231Z,1.42
2022-10-24T09:58:41.394Z,1.40
2022-10-24T10:01:19.869Z,1.05
2022-10-24T10:04:09.057Z,1.45
2022-10-24T10:06:43.466Z,1.27
2022-10-24T10:09:13.478Z,1.67
2022-10-24T10:11:44.775Z,1.52
2022-10-24T10:14:24.111Z,1.63
2022-10-24T10:17:05.465Z,1.70
2022-10-24T10:19:36.562Z,1.80
2022-10-24T10:22:20.100Z,1.25
2022-10-24T10:24:47.089Z,1.52
2022-10-24T10:27:32.053Z,1.48
2022-10-24T10:30:17.702Z,1.40
2022-10-24T10:33:01.006Z,1.45
2022-10-24T10:35:47.440Z,1.60
2022-10-24T10:38:32.549Z,2.30
2022-10-24T10:41:05.909Z,1.55
2022-10-24T10:43:47.110Z,1.30
2022-10-24T10:46:16.372Z,1.20
2022-10-24T10:49:00.830Z,1.67
2022-10-24T10:51:48.331Z,1.73
2022-10-24T10:54:52.885Z,2.40
2022-10-24T10:57:31.157Z,1.67
2022-10-24T11:00:14.315Z,1.50
2022-10-24T11:03:02.737Z,1.67
2022-10-24T11:05:59.390Z,1.77
2022-10-24T11:08:34.380Z,1.80
2022-10-24T11:11:04.348Z,1.67
2022-10-24T11:13:34.696Z,1.98
2022-10-24T11:16:04.488Z,1.55
2022-10-24T11:18:35.447Z,1.30
2022-10-24T11:21:10.097Z,1.67
2022-10-24T11:23:47.264Z,1.60
2022-10-24T11:26:18.975Z,2.85
2022-10-24T11:29:09.084Z,1.50
2022-10-24T11:31:39.368Z,1.88
2022-10-24T11:34:20.557Z,1.98
2022-10-24T11:36:56.083Z,1.45
2022-10-24T11:39:25.913Z,1.77
2022-10-24T11:41:59.505Z,1.42
2022-10-24T11:44:38.060Z,1.50
2022-10-24T11:47:27.136Z,1.58
2022-10-24T11:50:25.581Z,1.58
2022-10-24T11:52:55.914Z,1.60
2022-10-24T11:55:37.387Z,1.55
2022-10-24T11:58:07.984Z,1.92
2022-10-24T12:00:52.129Z,1.80
2022-10-24T12:03:25.698Z,1.95
2022-10-24T12:06:01.075Z,2.67
2022-10-24T12:08:40.753Z,1.60
2022-10-24T12:11:32.113Z,1.52
2022-10-24T12:14:07.459Z,1.63
2022-10-24T12:16:47.249Z,1.92
2022-10-24T12:19:18.510Z,1.95
2022-10-24T12:21:47.777Z,1.93
2022-10-24T12:24:35.789Z,2.05
2022-10-24T12:27:07.824Z,2.00
2022-10-24T12:29:36.273Z,1.42
2022-10-24T12:32:37.227Z,3.50
2022-10-24T12:35:31.585Z,1.50
2022-10-24T12:37:58.910Z,1.80
2022-10-24T12:41:06.471Z,2.10
2022-10-24T12:43:44.734Z,1.75
2022-10-24T12:46:15.854Z,1.65
2022-10-24T12:49:10.007Z,2.35
2022-10-24T12:51:37.843Z,1.27
2022-10-24T12:54:13.314Z,1.58
2022-10-24T12:56:52.138Z,1.58
2022-10-24T12:59:48.867Z,1.65
2022-10-24T13:02:15.242Z,1.48
2022-10-24T13:05:03.215Z,2.28
2022-10-24T13:07:41.720Z,1.63
2022-10-24T13:10:20.159Z,1.92
2022-10-24T13:13:21.853Z,1.50
2022-10-24T13:16:13.174Z,1.33
2022-10-24T13:19:08.962Z,1.85
2022-10-24T13:21:46.634Z,2.25
2022-10-24T13:24:37.334Z,1.75
2022-10-24T13:27:03.642Z,1.70
2022-10-24T13:29:29.916Z,2.03
2022-10-24T13:32:05.474Z,1.60
2022-10-24T13:34:41.654Z,1.40
2022-10-24T13:37:11.376Z,2.05
2022-10-24T13:39:42.507Z,1.90
2022-10-24T13:43:06.863Z,1.80
2022-10-24T13:45:39.506Z,1.60
2022-10-24T13:48:12.002Z,2.20
2022-10-24T13:50:49.453Z,1.58
2022-10-24T13:53:26.575Z,1.73
2022-10-24T13:55:58.977Z,1.90
2022-10-24T13:58:26.588Z,2.10
2022-10-24T14:00:57.630Z,1.90
2022-10-24T14:03:25.973Z,2.05
2022-10-24T14:05:53.065Z,1.77
2022-10-24T14:08:59.735Z,1.63
2022-10-24T14:11:31.207Z,1.35
2022-10-24T14:14:03.934Z,1.10
2022-10-24T14:16:34.419Z,2.67
2022-10-24T14:19:32.992Z,1.95
2022-10-24T14:22:00.097Z,2.20
2022-10-24T14:24:26.464Z,2.63
2022-10-24T14:26:54.103Z,1.55
2022-10-24T14:29:31.096Z,1.80
2022-10-24T14:32:07.690Z,1.50
2022-10-24T14:34:36.691Z,1.77
2022-10-24T14:37:05.697Z,2.05
2022-10-24T14:39:32.862Z,2.53
2022-10-24T14:42:01.486Z,1.30
2022-10-24T14:44:28.000Z,1.38
2022-10-24T14:47:20.741Z,1.55
2022-10-24T14:49:47.152Z,1.05
2022-10-24T14:52:18.096Z,1.30
2022-10-24T14:54:53.734Z,1.42
2022-10-24T14:57:21.775Z,1.33
2022-10-24T14:59:50.500Z,1.77
2022-10-24T15:02:32.187Z,1.42
2022-10-24T15:05:24.512Z,1.58
2022-10-24T15:08:20.515Z,2.03
2022-10-24T15:10:43.923Z,1.42
2022-10-24T15:13:21.462Z,2.05
2022-10-24T15:15:58.388Z,1.75
2022-10-24T15:18:27.017Z,1.50
2022-10-24T15:21:07.026Z,2.00
2022-10-24T15:23:36.506Z,1.77
2022-10-24T15:26:11.769Z,1.73
2022-10-24T15:28:47.459Z,1.70
2022-10-24T15:31:16.024Z,1.52
2022-10-24T15:33:42.900Z,3.15
2022-10-24T15:36:17.463Z,2.10
2022-10-24T15:38:43.862Z,1.85
2022-10-24T15:41:10.216Z,1.60
2022-10-24T15:43:36.635Z,1.73
2022-10-24T15:46:03.231Z,1.77
2022-10-24T15:48:29.654Z,1.73
2022-10-24T15:50:56.017Z,2.08
2022-10-24T15:53:22.521Z,2.13
2022-10-24T15:55:48.977Z,2.22
2022-10-24T15:58:16.659Z,3.63
2022-10-24T16:00:43.528Z,2.85
2022-10-24T16:03:14.322Z,2.38
2022-10-24T16:05:44.016Z,2.35
2022-10-24T16:08:18.658Z,1.90
2022-10-24T16:10:46.589Z,1.90
2022-10-24T16:13:13.957Z,2.30
2022-10-24T16:15:41.349Z,1.80
2022-10-24T16:18:08.450Z,2.72
2022-10-24T16:20:35.108Z,2.83
2022-10-24T16:23:02.069Z,3.22
2022-10-24T16:25:31.159Z,2.63
2022-10-24T16:27:57.568Z,3.38
2022-10-24T16:30:27.189Z,2.30
2022-10-24T16:32:53.715Z,3.15
2022-10-24T16:35:26.229Z,2.45
2022-10-24T16:37:53.962Z,3.33
2022-10-24T16:40:20.978Z,3.88
2022-10-24T16:42:51.576Z,2.22
2022-10-24T16:45:18.571Z,2.50
2022-10-24T16:47:45.159Z,2.70
2022-10-24T16:50:17.203Z,2.20
2022-10-24T16:52:44.783Z,2.42
2022-10-24T16:55:12.890Z,2.55
2022-10-24T16:57:39.257Z,2.20
2022-10-24T17:00:06.239Z,3.65
2022-10-24T17:02:32.676Z,4.13
2022-10-24T17:04:59.059Z,2.40
2022-10-24T17:07:25.851Z,2.13
2022-10-24T17:09:52.240Z,2.08
2022-10-24T17:12:18.627Z,2.22
2022-10-24T17:14:45.009Z,2.10
2022-10-24T17:17:11.410Z,2.75
2022-10-24T17:19:38.263Z,2.70
2022-10-24T17:22:04.779Z,3.33
2022-10-24T17:24:31.906Z,2.55
2022-10-24T17:26:58.389Z,2.90
2022-10-24T17:29:30.345Z,2.83
2022-10-24T17:31:57.264Z,2.53
2022-10-24T17:34:23.758Z,4.90
2022-10-24T17:36:56.869Z,2.80
2022-10-24T17:39:46.611Z,2.70
2022-10-24T17:42:13.089Z,2.72
2022-10-24T17:44:39.777Z,2.75
2022-10-24T17:47:07.115Z,2.78
2022-10-24T17:49:33.490Z,2.80
2022-10-24T17:51:59.854Z,2.70
2022-10-24T17:54:26.280Z,3.25
2022-10-24T17:56:52.640Z,4.05
2022-10-24T17:59:19.054Z,2.85
2022-10-24T18:01:45.518Z,2.88
2022-10-24T18:04:12.057Z,2.90
2022-10-24T18:06:42.211Z,3.65
2022-10-24T18:09:09.724Z,3.33
2022-10-24T18:11:36.127Z,3.05
2022-10-24T18:14:03.126Z,3.65
2022-10-24T18:16:30.692Z,4.72
2022-10-24T18:18:57.358Z,4.65
2022-10-24T18:21:25.201Z,3.90
2022-10-24T18:23:53.107Z,3.80
2022-10-24T18:26:22.499Z,2.58
2022-10-24T18:28:50.916Z,2.70
2022-10-24T18:31:22.391Z,2.97
2022-10-24T18:33:49.398Z,2.70
2022-10-24T18:36:24.670Z,2.20
2022-10-24T18:38:53.547Z,2.30
2022-10-24T18:41:42.656Z,3.22
2022-10-24T18:44:22.052Z,2.72
2022-10-24T18:46:49.086Z,2.33
2022-10-24T18:49:16.354Z,2.08
2022-10-24T18:51:51.226Z,1.85
2022-10-24T18:56:51.598Z,1.80
2022-10-24T18:59:21.601Z,1.80
2022-10-24T19:02:20.723Z,1.65
2022-10-24T19:04:52.961Z,1.58
2022-10-24T19:09:45.996Z,1.70
2022-10-24T19:12:12.433Z,1.92
2022-10-24T19:14:39.461Z,1.48
2022-10-24T19:17:05.908Z,1.50
2022-10-24T19:19:36.206Z,2.40
2022-10-24T19:22:02.924Z,1.50
2022-10-24T19:24:29.518Z,1.30
2022-10-24T19:26:55.887Z,1.38
2022-10-24T19:29:22.289Z,1.65
2022-10-24T19:31:49.003Z,1.40
2022-10-24T19:34:15.387Z,2.20
2022-10-24T19:36:41.768Z,1.30
2022-10-24T19:39:09.285Z,1.58
2022-10-24T19:41:36.513Z,1.30
2022-10-24T19:44:04.387Z,1.48
2022-10-24T19:46:30.791Z,1.48
2022-10-24T19:48:57.171Z,1.70
2022-10-24T19:51:25.113Z,1.00
2022-10-24T19:53:52.291Z,1.75
2022-10-24T19:56:25.119Z,1.25
2022-10-24T19:58:52.754Z,1.77
2022-10-24T20:01:21.530Z,1.65
2022-10-24T20:03:49.070Z,1.90
2022-10-24T20:06:15.874Z,1.70
2022-10-24T20:08:42.482Z,2.10
2022-10-24T20:11:09.710Z,1.83
2022-10-24T20:13:36.102Z,1.95
2022-10-24T20:16:05.428Z,1.70
2022-10-24T20:18:33.516Z,1.95
2022-10-24T20:21:01.978Z,1.70
2022-10-24T20:23:28.341Z,2.40
2022-10-24T20:26:03.114Z,2.10
2022-10-24T20:28:29.682Z,2.00
2022-10-24T20:30:56.111Z,1.80
2022-10-24T20:33:22.497Z,2.55
2022-10-24T20:35:48.881Z,2.22
2022-10-24T20:38:15.249Z,1.98
2022-10-24T20:40:41.660Z,2.22
2022-10-24T20:43:09.121Z,2.65
2022-10-24T20:45:39.740Z,2.25
2022-10-24T20:48:06.132Z,2.85
2022-10-24T20:50:32.610Z,3.15
2022-10-24T20:52:58.993Z,2.55
2022-10-24T20:55:39.437Z,2.72
2022-10-24T20:58:12.936Z,3.00
2022-10-24T21:03:05.906Z,2.28
2022-10-24T21:05:34.824Z,1.88
2022-10-24T21:08:01.301Z,2.17
2022-10-24T21:10:27.665Z,2.63
2022-10-24T21:12:54.539Z,2.10
2022-10-24T21:15:21.031Z,2.20
2022-10-24T21:17:47.667Z,2.42
2022-10-24T21:20:14.313Z,3.10
2022-10-24T21:22:40.692Z,2.50
2022-10-24T21:25:07.346Z,2.90
2022-10-24T21:27:33.726Z,3.35
2022-10-24T21:30:00.135Z,2.50
2022-10-24T21:32:26.531Z,2.80
2022-10-24T21:34:52.928Z,2.78
2022-10-24T21:37:19.309Z,3.47
2022-10-24T21:39:45.725Z,2.17
2022-10-24T21:42:12.146Z,2.50
2022-10-24T21:44:38.528Z,2.28
2022-10-24T21:47:04.952Z,1.77
2022-10-24T21:49:31.307Z,1.90
2022-10-24T21:51:57.719Z,1.85
2022-10-24T21:54:25.194Z,1.60
2022-10-24T21:56:51.851Z,1.70
2022-10-24T21:59:20.040Z,1.70
2022-10-24T22:01:48.397Z,1.58
2022-10-24T22:04:15.250Z,1.38
2022-10-24T22:06:42.091Z,1.40
2022-10-24T22:09:11.983Z,1.65
2022-10-24T22:11:38.392Z,2.05
2022-10-24T22:14:05.364Z,1.85
2022-10-24T22:16:32.487Z,1.90
2022-10-24T22:19:03.162Z,1.77
2022-10-24T22:21:41.951Z,1.80
2022-10-24T22:24:11.758Z,1.67
2022-10-24T22:26:38.661Z,3.67
2022-10-24T22:29:06.114Z,3.65
2022-10-24T22:31:33.047Z,2.20
2022-10-24T22:33:59.744Z,2.22
2022-10-24T22:36:40.307Z,2.38
2022-10-24T22:39:21.849Z,2.40
2022-10-24T22:41:48.743Z,3.88
2022-10-24T22:44:17.759Z,2.50
2022-10-24T22:47:12.106Z,2.20
2022-10-24T22:49:47.606Z,2.97
2022-10-24T22:52:14.203Z,2.30
2022-10-24T22:54:40.881Z,2.33
2022-10-24T22:57:07.576Z,2.42
2022-10-24T22:59:34.414Z,2.10
2022-10-24T23:02:09.880Z,2.30
2022-10-24T23:04:43.838Z,1.63
2022-10-24T23:07:27.649Z,1.90
2022-10-24T23:09:54.415Z,3.20
2022-10-24T23:12:21.581Z,2.00
2022-10-24T23:14:49.356Z,2.40
2022-10-24T23:17:23.566Z,2.20
2022-10-24T23:19:50.234Z,2.38
2022-10-24T23:22:32.519Z,2.03
2022-10-24T23:27:38.380Z,2.40
2022-10-24T23:30:19.784Z,2.38
2022-10-24T23:32:47.076Z,1.92
2022-10-24T23:35:15.036Z,2.42
2022-10-24T23:37:44.670Z,2.00
2022-10-24T23:40:17.127Z,2.33
2022-10-24T23:42:44.829Z,1.95
2022-10-24T23:45:13.501Z,2.35
2022-10-24T23:47:55.307Z,2.78
2022-10-24T23:50:31.197Z,2.20
2022-10-24T23:53:31.740Z,2.10
2022-10-24T23:58:29.732Z,2.58
